KEAU/EAU METAR and TAF weather

Enter ICAO airport designator
Station Type Date Time Source
KEAU METAR 2020/11/28 19:56 UTC NOAA

KEAU 281956Z 24007KT 10SM CLR 11/M04 A2987 RMK AO2 SLP123 T01111039


Station Type Date Time Source
KEAU Decoded METAR 2020/11/28 19:56 UTC NOAA

EAU CLAIRE CHIPPEWA VALLEY, WI, United States (KEAU) 44-52N 091-29W
Nov 28, 2020 - 02:56 PM EST / 2020.11.28 1956 UTC
Wind: from the WSW (240 degrees) at 8 MPH (7 KT):0
Visibility: 10 mile(s):0
Sky conditions: clear
Temperature: 52.0 F (11.1 C)
Dew Point: 25.0 F (-3.9 C)
Relative Humidity: 34%
Pressure (altimeter): 29.87 in. Hg (1011 hPa)
ob: KEAU 281956Z 24007KT 10SM CLR 11/M04 A2987 RMK AO2 SLP123 T01111039
cycle: 20

Station Type Date Time Source
KEAU TAF 2020/11/28 18:22 UTC NOAA

TAF KEAU 281720Z 2818/2918 22007KT P6SM SKC
FM291100 29008KT P6SM BKN150
FM291400 31016G28KT P6SM BKN025

Example: see airport list